Time;durP1;ratioP1;P1;durP2;ratioP2;P2;SDS_P1;SDS_P2;PMS_P1;PMS_P2;Temp;Humidity;BMP_temperature;BMP_pressure;BME280_temperature;BME280_humidity;BME280_pressure;Samples;Min_cycle;Max_cycle;Signal;HPM_P1;HPM_P2
2021/01/09 00:00:24;;;;;;;5.72;2.05;;;23.10;14.30;;;;;;5090361;28;20520;-63
2021/01/09 00:02:50;;;;;;;4.88;1.90;;;23.10;14.70;;;;;;5072765;28;20079;-64
2021/01/09 00:05:17;;;;;;;4.72;1.90;;;23.00;15.30;;;;;;5092805;28;20547;-63
2021/01/09 00:07:43;;;;;;;10.25;2.42;;;22.80;16.10;;;;;;5071874;28;20516;-63
2021/01/09 00:10:10;;;;;;;8.70;2.80;;;22.70;16.40;;;;;;5072483;28;20076;-63
2021/01/09 00:12:38;;;;;;;11.95;2.67;;;22.60;15.40;;;;;;5089637;28;20822;-64
2021/01/09 00:15:09;;;;;;;7.65;2.67;;;22.50;16.90;;;;;;5087544;28;20059;-63
2021/01/09 00:17:36;;;;;;;8.20;2.70;;;22.40;18.10;;;;;;5089328;28;20107;-62
2021/01/09 00:20:13;;;;;;;6.25;2.55;;;22.30;17.20;;;;;;5084514;28;20076;-62
2021/01/09 00:22:39;;;;;;;;;;;22.10;17.90;;;;;;5092669;28;20098;-62
2021/01/09 00:25:08;;;;;;;9.80;2.08;;;22.00;18.50;;;;;;5092074;28;19970;-62
2021/01/09 00:27:34;;;;;;;7.18;2.63;;;21.80;18.90;;;;;;5089537;28;20080;-63
2021/01/09 00:30:01;;;;;;;11.55;2.40;;;21.70;19.20;;;;;;5091470;28;20543;-63
2021/01/09 00:32:28;;;;;;;11.25;2.53;;;21.60;19.30;;;;;;5072836;28;20089;-63
2021/01/09 00:34:54;;;;;;;9.27;2.92;;;21.50;19.80;;;;;;5108513;28;20076;-63
2021/01/09 00:37:25;;;;;;;12.95;3.65;;;21.30;20.30;;;;;;5109005;28;20167;-64
2021/01/09 00:39:51;;;;;;;8.77;4.18;;;21.20;19.80;;;;;;5110487;28;20094;-64
2021/01/09 00:42:18;;;;;;;19.98;4.70;;;21.10;20.00;;;;;;5110629;28;20072;-63
2021/01/09 00:44:44;;;;;;;11.90;4.95;;;20.90;20.40;;;;;;5109727;27;20151;-64
2021/01/09 00:47:11;;;;;;;20.10;5.53;;;20.70;21.00;;;;;;5112306;27;20071;-66
2021/01/09 00:49:38;;;;;;;11.95;4.90;;;20.60;21.50;;;;;;5107579;28;20072;-63
2021/01/09 00:52:04;;;;;;;19.40;4.63;;;20.40;21.70;;;;;;5109195;28;20104;-63
2021/01/09 00:54:32;;;;;;;20.27;4.50;;;20.20;22.00;;;;;;5109851;28;20075;-64
2021/01/09 00:56:59;;;;;;;17.02;4.28;;;20.00;22.80;;;;;;5109569;28;20075;-64
2021/01/09 00:59:26;;;;;;;10.68;4.10;;;19.90;22.90;;;;;;5093628;28;20103;-64
2021/01/09 01:01:56;;;;;;;19.08;4.13;;;19.70;23.60;;;;;;5103831;28;20069;-64
2021/01/09 01:04:24;;;;;;;15.52;4.18;;;19.50;23.90;;;;;;5097989;28;20072;-64
2021/01/09 01:06:50;;;;;;;22.23;5.00;;;19.30;23.90;;;;;;5109186;28;20064;-64
2021/01/09 01:09:17;;;;;;;20.02;4.57;;;19.20;23.60;;;;;;5108602;28;20086;-63
2021/01/09 01:11:44;;;;;;;26.13;5.65;;;19.10;24.60;;;;;;5110193;28;20572;-62
2021/01/09 01:14:11;;;;;;;24.38;4.60;;;18.90;24.10;;;;;;5108665;28;20072;-63
2021/01/09 01:16:38;;;;;;;24.55;4.60;;;18.80;23.40;;;;;;5111395;28;20103;-62
2021/01/09 01:19:05;;;;;;;32.92;6.05;;;18.70;23.20;;;;;;5106151;28;20096;-63
2021/01/09 01:21:34;;;;;;;21.40;5.85;;;18.60;24.30;;;;;;5098378;27;20076;-63
2021/01/09 01:24:01;;;;;;;32.10;6.18;;;18.50;25.30;;;;;;5107962;28;20076;-64
2021/01/09 01:26:28;;;;;;;31.23;8.10;;;18.30;25.70;;;;;;5095858;27;20064;-61
2021/01/09 01:28:54;;;;;;;;;;;18.20;26.20;;;;;;5110333;27;20151;-60
2021/01/09 01:31:23;;;;;;;33.70;8.15;;;18.10;26.90;;;;;;5109112;27;20327;-63
2021/01/09 01:33:50;;;;;;;25.40;8.00;;;18.00;27.20;;;;;;5107738;28;20568;-66
2021/01/09 01:36:18;;;;;;;34.60;8.95;;;17.90;27.70;;;;;;5108252;28;20552;-65
2021/01/09 01:38:44;;;;;;;35.67;8.02;;;17.80;27.90;;;;;;5094362;27;20115;-66
2021/01/09 01:41:11;;;;;;;;;;;17.60;26.90;;;;;;5106880;27;20556;-65
2021/01/09 01:43:38;;;;;;;35.78;9.23;;;17.50;27.20;;;;;;5106944;28;19956;-65
2021/01/09 01:46:09;;;;;;;24.02;7.70;;;17.40;27.60;;;;;;5091343;28;20550;-65
2021/01/09 01:48:37;;;;;;;41.33;8.88;;;17.40;28.30;;;;;;5107922;28;20095;-66
2021/01/09 01:51:04;;;;;;;38.65;8.27;;;17.20;28.00;;;;;;5092959;28;20076;-64
2021/01/09 01:53:33;;;;;;;27.20;9.07;;;17.10;27.80;;;;;;5106996;28;20536;-65
2021/01/09 01:56:00;;;;;;;39.97;10.18;;;17.10;28.30;;;;;;5109018;28;20076;-66
2021/01/09 01:58:26;;;;;;;34.92;10.15;;;17.00;28.90;;;;;;5107500;28;20179;-64
2021/01/09 02:00:53;;;;;;;41.10;11.32;;;17.00;29.30;;;;;;5108600;28;20072;-64
2021/01/09 02:03:20;;;;;;;;;;;16.80;29.40;;;;;;5109149;28;20072;-65
2021/01/09 02:05:56;;;;;;;62.63;16.58;;;16.70;29.10;;;;;;5107868;28;19956;-65
2021/01/09 02:08:28;;;;;;;59.95;16.00;;;16.60;30.00;;;;;;5109772;28;20532;-65
2021/01/09 02:10:59;;;;;;;54.00;13.05;;;16.50;31.00;;;;;;5095919;27;20068;-65
2021/01/09 02:13:52;;;;;;;45.22;11.77;;;16.50;31.10;;;;;;5107889;28;20133;-65
2021/01/09 02:16:20;;;;;;;61.40;13.27;;;16.40;30.10;;;;;;5109047;28;20528;-64
2021/01/09 02:18:48;;;;;;;38.95;11.30;;;16.40;30.40;;;;;;5107963;28;20147;-64
2021/01/09 02:21:51;;;;;;;27.88;8.90;;;16.20;29.90;;;;;;5107197;28;20568;-65
2021/01/09 02:24:18;;;;;;;35.90;9.65;;;16.20;29.40;;;;;;5028654;28;20108;-64
2021/01/09 02:26:50;;;;;;;29.33;9.23;;;16.10;30.20;;;;;;5095750;28;20095;-66
2021/01/09 02:29:16;;;;;;;29.48;10.13;;;16.10;30.40;;;;;;5105737;28;20095;-65
2021/01/09 02:31:48;;;;;;;;;;;16.00;30.60;;;;;;5097945;28;20073;-65
2021/01/09 02:34:16;;;;;;;33.95;10.45;;;15.90;31.00;;;;;;5100408;28;20487;-65
2021/01/09 02:36:45;;;;;;;59.17;10.48;;;15.80;30.40;;;;;;5106444;28;20083;-65
2021/01/09 02:39:11;;;;;;;49.15;11.05;;;15.80;31.10;;;;;;5104440;28;20665;-64
2021/01/09 02:41:41;;;;;;;38.33;11.40;;;15.70;31.60;;;;;;5101620;28;20541;-65
2021/01/09 02:44:12;;;;;;;39.40;12.18;;;15.70;31.90;;;;;;5087160;28;20530;-65
2021/01/09 02:46:38;;;;;;;33.20;11.05;;;15.60;32.40;;;;;;5086378;28;20201;-65
2021/01/09 02:49:05;;;;;;;45.25;16.00;;;15.60;32.20;;;;;;5089883;28;20081;-65
2021/01/09 02:51:33;;;;;;;52.22;17.90;;;15.50;32.90;;;;;;5101083;28;20076;-65
2021/01/09 02:53:59;;;;;;;42.70;18.02;;;15.40;32.80;;;;;;5098765;28;20101;-65
2021/01/09 02:56:26;;;;;;;42.03;18.08;;;15.30;32.60;;;;;;5103291;28;20069;-64
2021/01/09 02:58:53;;;;;;;55.65;18.73;;;15.20;33.10;;;;;;5103586;28;20127;-65
2021/01/09 03:01:19;;;;;;;;;;;15.20;33.60;;;;;;5107646;28;20547;-66
2021/01/09 03:03:45;;;;;;;52.45;18.42;;;15.10;33.70;;;;;;5087656;28;20364;-66
2021/01/09 03:06:11;;;;;;;;;;;15.10;34.10;;;;;;5070934;28;20441;-64
2021/01/09 03:08:38;;;;;;;71.97;19.83;;;15.10;34.70;;;;;;5099695;28;19964;-67
2021/01/09 03:11:04;;;;;;;;;;;15.00;35.30;;;;;;5107751;28;20064;-65
2021/01/09 03:13:31;;;;;;;75.78;24.45;;;15.00;35.80;;;;;;5107552;28;19972;-64
2021/01/09 03:15:59;;;;;;;73.93;20.35;;;14.90;35.50;;;;;;5103731;28;20228;-64
2021/01/09 03:18:26;;;;;;;68.57;21.38;;;14.90;36.00;;;;;;5105168;28;20092;-65
2021/01/09 03:20:52;;;;;;;66.55;20.67;;;14.90;36.80;;;;;;5105115;28;20069;-65
2021/01/09 03:23:19;;;;;;;;;;;14.80;36.80;;;;;;5103849;28;20072;-64
2021/01/09 03:25:45;;;;;;;72.75;25.05;;;14.70;35.80;;;;;;5084583;28;20417;-65
2021/01/09 03:28:12;;;;;;;80.68;27.52;;;14.70;35.70;;;;;;5086215;28;20489;-65
2021/01/09 03:30:38;;;;;;;;;;;14.60;36.60;;;;;;5102243;28;20072;-65
2021/01/09 03:33:05;;;;;;;84.55;29.58;;;14.60;37.00;;;;;;5080961;28;20444;-65
2021/01/09 03:35:31;;;;;;;106.03;42.63;;;14.50;37.40;;;;;;5104376;28;20529;-65
2021/01/09 03:37:57;;;;;;;;;;;14.40;36.80;;;;;;5100119;28;20590;-65
2021/01/09 03:40:24;;;;;;;119.65;46.60;;;14.40;37.10;;;;;;5087414;28;20070;-66
2021/01/09 03:42:50;;;;;;;;;;;14.40;37.40;;;;;;5109611;28;20063;-64
2021/01/09 03:45:17;;;;;;;121.10;46.67;;;14.30;37.00;;;;;;5101376;28;20052;-65
2021/01/09 03:47:43;;;;;;;;;;;14.30;36.60;;;;;;5104114;28;20071;-65
2021/01/09 03:50:10;;;;;;;96.55;42.17;;;14.30;36.60;;;;;;5085752;28;19963;-65
2021/01/09 03:52:36;;;;;;;104.57;42.53;;;14.20;37.20;;;;;;5102871;28;20076;-65
2021/01/09 03:55:04;;;;;;;103.88;40.60;;;14.20;37.50;;;;;;5106015;28;20083;-65
2021/01/09 03:57:31;;;;;;;97.60;36.10;;;14.20;38.20;;;;;;5087466;28;20092;-65
2021/01/09 03:59:58;;;;;;;93.57;38.10;;;14.10;37.70;;;;;;5120301;27;20494;-65
2021/01/09 04:02:24;;;;;;;84.63;31.73;;;14.10;37.70;;;;;;5104974;28;20092;-65
2021/01/09 04:04:51;;;;;;;79.75;32.92;;;14.10;36.70;;;;;;5107541;28;20077;-65
2021/01/09 04:07:17;;;;;;;;;;;14.10;37.50;;;;;;5104788;28;20076;-63
2021/01/09 04:09:43;;;;;;;78.18;27.27;;;14.00;37.90;;;;;;5088319;28;20002;-65
2021/01/09 04:12:09;;;;;;;;;;;14.00;37.70;;;;;;5107033;28;20073;-64
2021/01/09 04:14:36;;;;;;;65.25;26.48;;;14.00;38.10;;;;;;5108070;28;19984;-65
2021/01/09 04:17:02;;;;;;;;;;;13.80;38.70;;;;;;5108029;28;20076;-65
2021/01/09 04:19:29;;;;;;;66.30;24.67;;;13.80;38.50;;;;;;5106857;27;19968;-64
2021/01/09 04:21:55;;;;;;;;;;;13.70;38.60;;;;;;5100907;28;20068;-64
2021/01/09 04:24:25;;;;;;;76.18;25.38;;;13.70;38.80;;;;;;5107383;28;20043;-64
2021/01/09 04:26:56;;;;;;;76.07;26.38;;;13.70;38.70;;;;;;5103640;28;21787;-65
2021/01/09 04:29:25;;;;;;;73.68;26.20;;;13.70;38.80;;;;;;5088354;28;20515;-64
2021/01/09 04:31:52;;;;;;;78.25;25.17;;;13.70;39.10;;;;;;5086018;28;20163;-64
2021/01/09 04:34:20;;;;;;;79.78;23.52;;;13.60;39.00;;;;;;5107957;28;20556;-64
2021/01/09 04:36:47;;;;;;;64.32;22.25;;;13.60;39.30;;;;;;5110523;28;20080;-64
2021/01/09 04:39:17;;;;;;;75.18;22.88;;;13.50;39.40;;;;;;5088888;28;20240;-64
2021/01/09 04:41:44;;;;;;;72.15;25.08;;;13.40;38.40;;;;;;5102763;28;20072;-65
2021/01/09 04:44:13;;;;;;;98.32;27.83;;;13.40;38.60;;;;;;5102178;28;20141;-65
2021/01/09 04:46:53;;;;;;;88.10;30.30;;;13.30;38.50;;;;;;5083250;28;20093;-65
2021/01/09 04:49:24;;;;;;;88.85;29.98;;;13.30;38.90;;;;;;5104425;28;20079;-64
2021/01/09 04:51:52;;;;;;;90.35;29.08;;;13.30;39.50;;;;;;5109744;28;20072;-65
2021/01/09 04:54:21;;;;;;;97.05;31.20;;;13.30;39.40;;;;;;5107349;28;20076;-65
2021/01/09 04:56:49;;;;;;;108.68;32.88;;;13.20;39.80;;;;;;5106132;28;20076;-66
2021/01/09 04:59:17;;;;;;;99.93;32.92;;;13.30;39.90;;;;;;5077235;28;20093;-66
2021/01/09 05:01:46;;;;;;;88.07;30.65;;;13.20;39.90;;;;;;5077964;28;20164;-66
2021/01/09 05:04:14;;;;;;;100.80;30.52;;;13.20;40.70;;;;;;5089760;28;20495;-65
2021/01/09 05:06:41;;;;;;;102.40;30.55;;;13.20;40.70;;;;;;5082357;28;20231;-65
2021/01/09 05:09:10;;;;;;;102.38;29.80;;;13.20;40.30;;;;;;5104692;28;20159;-65
2021/01/09 05:11:38;;;;;;;94.60;30.58;;;13.10;40.80;;;;;;5085533;28;20105;-66
2021/01/09 05:14:06;;;;;;;113.72;31.13;;;13.00;40.00;;;;;;5101542;28;20076;-66
2021/01/09 05:16:33;;;;;;;104.55;30.85;;;13.00;40.20;;;;;;5103113;28;20133;-65
2021/01/09 05:19:01;;;;;;;123.85;37.63;;;12.90;40.60;;;;;;5086920;28;20602;-64
2021/01/09 05:21:35;;;;;;;127.57;42.15;;;12.90;40.30;;;;;;5108668;28;20087;-62
2021/01/09 05:24:07;;;;;;;151.32;45.22;;;12.80;40.80;;;;;;5109582;28;20474;-65
2021/01/09 05:26:36;;;;;;;135.23;43.95;;;12.90;41.00;;;;;;5091545;28;20176;-65
2021/01/09 05:29:04;;;;;;;139.25;44.38;;;12.80;41.30;;;;;;5103250;28;20223;-65
2021/01/09 05:31:35;;;;;;;139.20;45.13;;;12.80;42.00;;;;;;5108716;28;20406;-67
2021/01/09 05:34:02;;;;;;;145.63;49.05;;;12.80;41.90;;;;;;5087970;28;20572;-65
2021/01/09 05:36:29;;;;;;;151.00;49.70;;;12.80;42.10;;;;;;5075438;28;20163;-64
2021/01/09 05:38:55;;;;;;;;;;;12.70;41.90;;;;;;5100012;28;20124;-64
2021/01/09 05:41:24;;;;;;;148.27;50.63;;;12.70;42.10;;;;;;5101117;28;19986;-64
2021/01/09 05:44:08;;;;;;;158.00;54.38;;;12.70;42.80;;;;;;5101581;28;20172;-64
2021/01/09 05:46:37;;;;;;;166.85;56.67;;;12.70;42.50;;;;;;5106916;28;20110;-64
2021/01/09 05:49:05;;;;;;;172.88;56.67;;;12.70;42.50;;;;;;5105080;28;20443;-65
2021/01/09 05:51:34;;;;;;;171.30;57.78;;;12.70;42.40;;;;;;5089729;28;20095;-64
2021/01/09 05:54:01;;;;;;;155.32;57.33;;;12.70;42.60;;;;;;5104757;28;20433;-65
2021/01/09 05:56:28;;;;;;;164.15;56.97;;;12.60;43.30;;;;;;5105776;28;20083;-65
2021/01/09 05:58:55;;;;;;;168.60;59.05;;;12.60;43.80;;;;;;5097354;28;20104;-65
2021/01/09 06:01:28;;;;;;;155.63;55.95;;;12.60;43.90;;;;;;5082643;28;20612;-66
2021/01/09 06:04:06;;;;;;;148.98;57.22;;;12.60;44.00;;;;;;5118684;27;20084;-64
2021/01/09 06:06:32;;;;;;;158.10;56.00;;;12.50;43.40;;;;;;5088102;28;20072;-65
2021/01/09 06:09:08;;;;;;;152.18;55.28;;;12.50;43.40;;;;;;5090218;28;20165;-65
2021/01/09 06:11:40;;;;;;;158.80;54.38;;;12.50;43.40;;;;;;5103883;28;20075;-65
2021/01/09 06:14:10;;;;;;;136.75;52.33;;;12.50;43.80;;;;;;5078775;28;20165;-64
2021/01/09 06:16:39;;;;;;;132.27;50.15;;;12.50;44.40;;;;;;5101205;28;20646;-64
2021/01/09 06:19:07;;;;;;;137.35;50.17;;;12.40;44.40;;;;;;5089652;28;20100;-64
2021/01/09 06:21:35;;;;;;;126.60;48.25;;;12.40;44.40;;;;;;5106438;28;20463;-64
2021/01/09 06:24:04;;;;;;;146.77;50.40;;;12.40;44.60;;;;;;5091071;28;20406;-65
2021/01/09 06:26:31;;;;;;;130.75;49.25;;;12.40;44.90;;;;;;5082869;28;20125;-65
2021/01/09 06:29:21;;;;;;;126.03;48.25;;;12.30;45.20;;;;;;5103519;28;20188;-63
2021/01/09 06:31:56;;;;;;;147.65;48.97;;;12.30;45.20;;;;;;5100763;28;20140;-63
2021/01/09 06:34:29;;;;;;;126.60;47.10;;;12.30;44.90;;;;;;5108016;28;20115;-65
2021/01/09 06:37:01;;;;;;;141.55;49.50;;;12.20;45.70;;;;;;5103231;28;20073;-65
2021/01/09 06:39:35;;;;;;;135.23;47.38;;;12.10;45.50;;;;;;5106107;28;20096;-66
2021/01/09 06:42:06;;;;;;;128.55;46.15;;;12.00;45.40;;;;;;5103797;28;20439;-65
2021/01/09 06:44:33;;;;;;;122.40;45.90;;;12.00;45.50;;;;;;5107801;28;20076;-65
2021/01/09 06:47:00;;;;;;;142.65;47.72;;;12.00;45.60;;;;;;5086335;28;20076;-65
2021/01/09 06:49:27;;;;;;;145.77;47.55;;;11.90;46.10;;;;;;5101857;28;20069;-64
2021/01/09 06:52:02;;;;;;;135.27;45.92;;;12.00;46.30;;;;;;5106400;28;20463;-65
2021/01/09 06:54:38;;;;;;;127.90;45.33;;;12.00;46.20;;;;;;5088703;28;20432;-65
2021/01/09 06:57:09;;;;;;;132.35;46.15;;;12.00;46.80;;;;;;5104360;28;20547;-65
2021/01/09 06:59:41;;;;;;;132.93;46.45;;;11.90;46.90;;;;;;5085246;28;20107;-66
2021/01/09 07:02:27;;;;;;;121.65;43.78;;;11.90;46.80;;;;;;5103931;28;20065;-65
2021/01/09 07:05:09;;;;;;;131.43;46.40;;;11.90;46.70;;;;;;5085197;28;20084;-64
2021/01/09 07:07:56;;;;;;;116.38;43.80;;;11.90;47.00;;;;;;5088443;28;20133;-66
2021/01/09 07:10:28;;;;;;;131.13;44.90;;;11.80;47.50;;;;;;5105524;28;20064;-64
2021/01/09 07:12:59;;;;;;;110.20;42.40;;;11.80;47.50;;;;;;5091066;28;20079;-65
2021/01/09 07:15:36;;;;;;;115.28;40.95;;;11.70;47.60;;;;;;5104115;28;20166;-65
2021/01/09 07:18:09;;;;;;;101.50;41.30;;;11.70;47.20;;;;;;5092345;28;20103;-65
2021/01/09 07:20:44;;;;;;;114.35;39.25;;;11.70;47.80;;;;;;5083095;28;20329;-66
2021/01/09 07:23:15;;;;;;;99.05;40.88;;;11.70;47.30;;;;;;5085662;28;20076;-65
2021/01/09 07:25:45;;;;;;;98.72;38.65;;;11.70;47.20;;;;;;5104260;28;20080;-64
2021/01/09 07:28:17;;;;;;;111.28;41.47;;;11.60;47.40;;;;;;5109019;28;20060;-65
2021/01/09 07:30:44;;;;;;;111.13;40.42;;;11.60;47.80;;;;;;5086395;28;20171;-64
2021/01/09 07:33:13;;;;;;;112.75;41.97;;;11.60;47.30;;;;;;5099752;28;20097;-65
2021/01/09 07:35:45;;;;;;;122.13;41.60;;;11.50;47.80;;;;;;5093792;28;20077;-64
2021/01/09 07:38:17;;;;;;;112.13;40.20;;;11.50;47.80;;;;;;5063028;28;20157;-66
2021/01/09 07:40:46;;;;;;;105.10;39.20;;;11.50;47.80;;;;;;5094668;28;20080;-65
2021/01/09 07:43:48;;;;;;;118.18;41.95;;;11.50;47.80;;;;;;5098114;28;20088;-64
2021/01/09 07:46:30;;;;;;;114.35;39.95;;;11.40;47.60;;;;;;5000283;28;20082;-65
2021/01/09 07:49:02;;;;;;;107.43;39.08;;;11.50;47.80;;;;;;5072691;28;20092;-64
2021/01/09 07:51:54;;;;;;;108.90;39.25;;;11.40;48.40;;;;;;5093636;28;20104;-65
2021/01/09 07:54:36;;;;;;;105.80;40.10;;;11.20;48.50;;;;;;5093432;28;20071;-64
2021/01/09 07:57:03;;;;;;;104.88;39.85;;;11.20;48.30;;;;;;5096475;28;20097;-64
2021/01/09 07:59:30;;;;;;;100.55;39.80;;;11.30;48.00;;;;;;5095233;28;20096;-64
2021/01/09 08:01:56;;;;;;;121.20;38.53;;;11.20;48.40;;;;;;5071275;28;20113;-64
2021/01/09 08:04:23;;;;;;;;;;;11.20;48.20;;;;;;5091660;28;20512;-65
2021/01/09 08:06:49;;;;;;;106.10;39.47;;;11.20;48.70;;;;;;5077998;28;19963;-65
2021/01/09 08:09:16;;;;;;;;;;;11.20;48.50;;;;;;5090516;28;20536;-64
2021/01/09 08:11:44;;;;;;;105.60;38.05;;;11.20;48.20;;;;;;5088677;28;20372;-65
2021/01/09 08:14:14;;;;;;;98.53;37.67;;;11.20;48.30;;;;;;5068458;28;20091;-65
2021/01/09 08:16:41;;;;;;;106.18;37.30;;;11.20;47.80;;;;;;5097022;28;20064;-64
2021/01/09 08:19:21;;;;;;;104.53;37.85;;;11.20;48.00;;;;;;5093288;28;20146;-65
2021/01/09 08:21:53;;;;;;;92.20;33.40;;;11.20;48.20;;;;;;5085810;28;20167;-65
2021/01/09 08:24:26;;;;;;;93.32;32.20;;;11.10;47.60;;;;;;5073458;28;20457;-63
2021/01/09 08:26:55;;;;;;;85.85;33.45;;;11.00;47.30;;;;;;5096233;28;20077;-63
2021/01/09 08:29:28;;;;;;;98.35;32.00;;;11.00;47.70;;;;;;5093181;28;20065;-67
2021/01/09 08:31:55;;;;;;;71.20;29.67;;;11.00;48.20;;;;;;5089683;28;20582;-65
2021/01/09 08:34:23;;;;;;;75.13;31.13;;;10.90;48.10;;;;;;5103071;27;20146;-64
2021/01/09 08:36:57;;;;;;;76.45;29.90;;;10.90;47.90;;;;;;5108376;27;20092;-65
2021/01/09 08:39:24;;;;;;;74.20;30.08;;;10.90;47.80;;;;;;5092432;28;20092;-64
2021/01/09 08:41:51;;;;;;;82.55;29.60;;;10.80;48.00;;;;;;5094658;27;20072;-64
2021/01/09 08:44:19;;;;;;;68.97;28.42;;;10.80;48.30;;;;;;5107128;28;20424;-64
2021/01/09 08:46:47;;;;;;;72.43;27.85;;;10.80;48.30;;;;;;5092770;28;20141;-64
2021/01/09 08:49:27;;;;;;;71.22;27.92;;;10.70;48.40;;;;;;5109456;28;20390;-64
2021/01/09 08:52:17;;;;;;;78.97;28.13;;;10.60;48.60;;;;;;5108843;28;20092;-64
2021/01/09 08:54:45;;;;;;;82.88;29.13;;;10.60;48.50;;;;;;5100798;28;20069;-64
2021/01/09 08:57:14;;;;;;;75.22;29.45;;;10.60;48.60;;;;;;5093997;28;20555;-64
2021/01/09 08:59:41;;;;;;;88.43;29.90;;;10.50;48.80;;;;;;5100777;27;20106;-63
2021/01/09 09:02:16;;;;;;;83.35;29.17;;;10.50;49.20;;;;;;5109353;27;20071;-64
2021/01/09 09:04:45;;;;;;;83.00;30.42;;;10.50;49.40;;;;;;5091914;27;20094;-64
2021/01/09 09:07:15;;;;;;;105.47;32.42;;;10.30;50.00;;;;;;5104832;28;20103;-64
2021/01/09 09:09:42;;;;;;;114.45;35.70;;;10.30;49.90;;;;;;5106780;28;20077;-65
2021/01/09 09:12:11;;;;;;;101.95;36.70;;;10.30;50.20;;;;;;5090255;28;20432;-64
2021/01/09 09:14:37;;;;;;;100.63;34.97;;;10.30;50.20;;;;;;5110211;28;20178;-64
2021/01/09 09:17:05;;;;;;;122.15;41.00;;;10.20;50.20;;;;;;5093187;28;20130;-64
2021/01/09 09:19:45;;;;;;;125.32;42.50;;;10.20;50.10;;;;;;5100039;28;20164;-64
2021/01/09 09:22:12;;;;;;;133.38;44.50;;;10.20;49.80;;;;;;5109174;27;20151;-64
2021/01/09 09:24:39;;;;;;;;;;;10.30;49.70;;;;;;5108696;27;20537;-64
2021/01/09 09:27:25;;;;;;;141.60;47.53;;;10.20;50.20;;;;;;5104073;28;20143;-64
2021/01/09 09:30:11;;;;;;;169.50;51.97;;;10.10;50.50;;;;;;5092373;28;20106;-64
2021/01/09 09:32:39;;;;;;;196.18;57.40;;;10.20;50.00;;;;;;5090551;28;20084;-65
2021/01/09 09:35:25;;;;;;;213.75;63.47;;;10.20;49.00;;;;;;5108039;28;20220;-64
2021/01/09 09:38:02;;;;;;;250.60;71.05;;;10.10;48.80;;;;;;5084238;28;20096;-65
2021/01/09 09:40:39;;;;;;;215.10;71.90;;;10.10;48.50;;;;;;5106700;28;20087;-64
2021/01/09 09:43:19;;;;;;;268.50;73.38;;;10.20;48.40;;;;;;5088217;28;20080;-65
2021/01/09 09:46:07;;;;;;;255.82;74.85;;;10.20;48.40;;;;;;5103330;28;20075;-64
2021/01/09 09:48:36;;;;;;;275.25;74.80;;;10.20;47.80;;;;;;5070331;28;20134;-64
2021/01/09 09:51:08;;;;;;;261.38;73.32;;;10.20;48.10;;;;;;5108232;28;20077;-64
2021/01/09 09:53:36;;;;;;;228.55;67.50;;;10.00;48.40;;;;;;5088169;28;20134;-65
2021/01/09 09:56:16;;;;;;;242.60;71.35;;;10.00;48.80;;;;;;5082063;28;20088;-64
2021/01/09 09:58:43;;;;;;;248.63;67.90;;;10.00;49.20;;;;;;5109535;28;20104;-65
2021/01/09 10:01:21;;;;;;;224.68;68.68;;;10.10;49.40;;;;;;5094668;28;20087;-64
2021/01/09 10:03:49;;;;;;;236.30;68.13;;;10.00;49.10;;;;;;5110444;27;20079;-64
2021/01/09 10:06:18;;;;;;;236.90;67.30;;;10.00;49.20;;;;;;5105082;28;20413;-65
2021/01/09 10:08:45;;;;;;;236.85;69.15;;;10.10;49.40;;;;;;5078734;28;20529;-64
2021/01/09 10:11:12;;;;;;;224.07;70.68;;;10.10;49.40;;;;;;5100196;28;20615;-65
2021/01/09 10:13:40;;;;;;;232.05;70.05;;;10.00;49.50;;;;;;5086406;28;20099;-64
2021/01/09 10:16:07;;;;;;;262.35;73.65;;;10.00;50.20;;;;;;5087905;28;20087;-64
2021/01/09 10:18:35;;;;;;;246.93;73.68;;;10.00;49.40;;;;;;5101873;28;20107;-64
2021/01/09 10:21:03;;;;;;;256.38;76.00;;;10.00;49.00;;;;;;5104109;28;20163;-64
2021/01/09 10:23:30;;;;;;;252.18;75.00;;;9.90;48.70;;;;;;5103357;28;20072;-64
2021/01/09 10:25:57;;;;;;;259.73;72.75;;;9.90;49.00;;;;;;5097031;28;20096;-65
2021/01/09 10:28:24;;;;;;;233.50;75.68;;;9.90;49.10;;;;;;5086897;28;20076;-64
2021/01/09 10:30:51;;;;;;;263.58;71.60;;;9.80;48.40;;;;;;5106555;28;20080;-63
2021/01/09 10:33:17;;;;;;;;;;;9.60;48.50;;;;;;5099180;28;20168;-64
2021/01/09 10:35:53;;;;;;;230.25;69.88;;;9.70;48.80;;;;;;5105509;28;20021;-66
2021/01/09 10:38:24;;;;;;;228.77;71.22;;;9.80;48.80;;;;;;5085236;28;20095;-64
2021/01/09 10:40:53;;;;;;;239.32;68.00;;;9.70;48.50;;;;;;5107299;28;20083;-65
2021/01/09 10:43:20;;;;;;;241.68;70.32;;;9.80;48.40;;;;;;5097249;28;20517;-64
2021/01/09 10:45:48;;;;;;;224.50;66.82;;;9.80;48.00;;;;;;5106757;28;20107;-65
2021/01/09 10:48:15;;;;;;;231.80;66.53;;;9.90;48.00;;;;;;5109424;28;20080;-65
2021/01/09 10:50:41;;;;;;;;;;;9.90;48.00;;;;;;5109916;27;20092;-65
2021/01/09 10:53:07;;;;;;;248.63;69.43;;;9.90;47.50;;;;;;5091870;28;19963;-64
2021/01/09 10:55:36;;;;;;;;;;;9.70;47.50;;;;;;5092423;28;20072;-64
2021/01/09 10:58:02;;;;;;;235.18;67.40;;;9.70;48.00;;;;;;5111135;28;20067;-64
2021/01/09 11:00:29;;;;;;;;;;;9.70;48.10;;;;;;5109786;28;20155;-64
2021/01/09 11:02:55;;;;;;;216.18;66.60;;;9.70;48.20;;;;;;5108497;28;19961;-64
2021/01/09 11:05:22;;;;;;;;;;;9.80;48.00;;;;;;5091981;28;20546;-64
2021/01/09 11:07:48;;;;;;;235.45;66.97;;;9.80;48.00;;;;;;5120716;27;19970;-66
2021/01/09 11:10:17;;;;;;;;;;;9.70;47.70;;;;;;5107603;28;20171;-65
2021/01/09 11:12:44;;;;;;;212.15;66.53;;;9.70;48.30;;;;;;5093396;28;20011;-65
2021/01/09 11:15:11;;;;;;;233.38;65.43;;;9.40;48.20;;;;;;5092873;28;20134;-65
2021/01/09 11:17:38;;;;;;;216.02;65.40;;;9.40;48.20;;;;;;5089535;28;20089;-65
2021/01/09 11:20:08;;;;;;;239.20;68.63;;;9.30;48.70;;;;;;5113562;28;20072;-64
2021/01/09 11:22:37;;;;;;;220.50;65.35;;;9.40;48.80;;;;;;5095095;28;20072;-64
2021/01/09 11:25:04;;;;;;;217.65;65.38;;;9.50;48.70;;;;;;5089257;28;20105;-64
2021/01/09 11:27:30;;;;;;;218.85;64.20;;;9.50;49.00;;;;;;5106435;28;20156;-65
2021/01/09 11:29:57;;;;;;;222.18;61.92;;;9.30;48.70;;;;;;5109386;28;20094;-64
2021/01/09 11:32:23;;;;;;;;;;;9.40;48.80;;;;;;5093077;28;20107;-64
2021/01/09 11:34:51;;;;;;;204.23;58.35;;;9.20;48.50;;;;;;5089318;28;20019;-65
2021/01/09 11:37:23;;;;;;;195.70;59.40;;;9.20;49.30;;;;;;5101145;28;20068;-65
2021/01/09 11:39:53;;;;;;;198.98;58.85;;;9.30;49.60;;;;;;5110809;28;20072;-64
2021/01/09 11:42:21;;;;;;;202.65;60.55;;;9.30;49.50;;;;;;5109049;28;20464;-64
2021/01/09 11:44:48;;;;;;;196.13;59.92;;;9.40;49.60;;;;;;5106632;28;20443;-64
2021/01/09 11:47:15;;;;;;;197.70;60.53;;;9.40;49.60;;;;;;5103907;28;20072;-64
2021/01/09 11:49:42;;;;;;;196.18;59.00;;;9.30;50.40;;;;;;5109982;28;20121;-65
2021/01/09 11:52:09;;;;;;;192.40;58.03;;;9.30;50.40;;;;;;5107006;28;20083;-64
2021/01/09 11:54:35;;;;;;;188.52;56.03;;;9.30;50.20;;;;;;5079597;28;20117;-64
2021/01/09 11:57:02;;;;;;;;;;;9.20;50.00;;;;;;5106246;28;20162;-65
2021/01/09 11:59:28;;;;;;;196.98;58.67;;;9.20;50.30;;;;;;5101084;28;19983;-64
2021/01/09 12:01:54;;;;;;;;;;;9.20;50.40;;;;;;5111041;28;20072;-65
2021/01/09 12:04:21;;;;;;;200.52;57.90;;;9.20;50.20;;;;;;5106588;27;19996;-65
2021/01/09 12:06:47;;;;;;;177.85;55.58;;;9.10;50.50;;;;;;5086248;28;20079;-65
2021/01/09 12:09:14;;;;;;;191.77;58.60;;;9.10;50.20;;;;;;5104349;28;20084;-64
2021/01/09 12:11:41;;;;;;;;;;;9.10;50.30;;;;;;5084444;28;20079;-64
2021/01/09 12:14:08;;;;;;;194.07;58.35;;;9.10;50.60;;;;;;5090518;28;19957;-64
2021/01/09 12:16:35;;;;;;;179.77;55.65;;;9.00;50.40;;;;;;5107204;28;20080;-64
2021/01/09 12:19:02;;;;;;;186.88;57.83;;;9.00;50.60;;;;;;5108562;28;20088;-64
2021/01/09 12:21:28;;;;;;;171.60;57.35;;;9.00;50.90;;;;;;5084632;28;20417;-64
2021/01/09 12:23:56;;;;;;;173.45;57.90;;;9.00;51.30;;;;;;5095420;28;20132;-64
2021/01/09 12:26:22;;;;;;;189.25;58.97;;;9.10;51.30;;;;;;5101578;28;20131;-65
2021/01/09 12:28:49;;;;;;;;;;;9.00;51.40;;;;;;5111043;28;20076;-64
2021/01/09 12:31:15;;;;;;;171.93;56.85;;;9.00;51.50;;;;;;5107695;28;20047;-65
2021/01/09 12:33:41;;;;;;;;;;;9.00;51.70;;;;;;5105176;28;20104;-64
2021/01/09 12:36:09;;;;;;;174.43;58.05;;;8.90;52.10;;;;;;5105759;28;20004;-65
2021/01/09 12:38:38;;;;;;;183.95;58.88;;;8.80;51.80;;;;;;5106976;28;20541;-64
2021/01/09 12:41:04;;;;;;;182.80;56.90;;;8.80;51.70;;;;;;5088088;28;20521;-66
2021/01/09 12:43:30;;;;;;;;;;;8.90;51.20;;;;;;5106802;28;20076;-65
2021/01/09 12:45:57;;;;;;;180.75;56.92;;;8.90;51.00;;;;;;5107645;28;19957;-64
2021/01/09 12:48:23;;;;;;;;;;;8.80;50.90;;;;;;5109526;28;20095;-64